Time;durP1;ratioP1;P1;durP2;ratioP2;P2;SDS_P1;SDS_P2;PMS_P1;PMS_P2;Temp;Humidity;BMP_temperature;BMP_pressure;BME280_temperature;BME280_humidity;BME280_pressure;Samples;Min_cycle;Max_cycle;Signal;HPM_P1;HPM_P2
2023/01/02 00:00:08;;;;;;;4.03;3.65;;;16.10;87.30;;;;;;4192953;28;20055;-62
2023/01/02 00:02:53;;;;;;;7.13;3.75;;;16.10;87.40;;;;;;4197436;28;20047;-62
2023/01/02 00:05:37;;;;;;;8.20;4.38;;;16.10;87.40;;;;;;4208878;28;20055;-62
2023/01/02 00:08:18;;;;;;;7.10;3.85;;;16.10;87.50;;;;;;4191463;28;20571;-62
2023/01/02 00:10:59;;;;;;;6.38;4.30;;;16.10;87.50;;;;;;4192637;28;20145;-62
2023/01/02 00:13:40;;;;;;;6.95;4.43;;;16.10;87.50;;;;;;4192319;28;20079;-62
2023/01/02 00:16:21;;;;;;;5.45;4.32;;;16.10;87.70;;;;;;4192847;28;20178;-62
2023/01/02 00:19:02;;;;;;;6.55;4.60;;;16.10;87.90;;;;;;4208866;28;20453;-62
2023/01/02 00:21:45;;;;;;;5.63;4.30;;;16.00;88.00;;;;;;4190652;28;20056;-62
2023/01/02 00:24:26;;;;;;;4.80;4.38;;;16.10;88.10;;;;;;4177254;28;20052;-63
2023/01/02 00:27:06;;;;;;;5.05;4.57;;;16.00;88.30;;;;;;4179621;28;20052;-63
2023/01/02 00:29:47;;;;;;;4.65;4.20;;;16.10;88.40;;;;;;4191567;28;20498;-62
2023/01/02 00:32:28;;;;;;;6.18;4.00;;;16.10;88.60;;;;;;4193311;28;20062;-64
2023/01/02 00:35:09;;;;;;;4.40;4.00;;;16.00;88.60;;;;;;4185326;28;20064;-63
2023/01/02 00:37:52;;;;;;;4.03;3.67;;;16.00;88.70;;;;;;4191992;28;20051;-63
2023/01/02 00:40:33;;;;;;;4.03;3.60;;;16.00;88.70;;;;;;4178359;28;20051;-63
2023/01/02 00:43:15;;;;;;;4.25;3.88;;;16.00;88.80;;;;;;4175210;28;20056;-63
2023/01/02 00:45:56;;;;;;;3.35;3.15;;;16.00;88.90;;;;;;4177022;28;20800;-63
2023/01/02 00:48:37;;;;;;;5.00;4.05;;;16.00;89.10;;;;;;4191922;28;20129;-62
2023/01/02 00:51:18;;;;;;;4.70;3.75;;;16.00;89.10;;;;;;4174894;28;20055;-62
2023/01/02 00:54:01;;;;;;;4.43;3.97;;;16.00;89.20;;;;;;4191362;28;20137;-62
2023/01/02 00:56:41;;;;;;;4.55;3.53;;;16.00;89.30;;;;;;4191369;28;20070;-62
2023/01/02 00:59:23;;;;;;;4.10;3.80;;;16.00;89.30;;;;;;4176638;28;20067;-62
2023/01/02 01:02:03;;;;;;;4.05;3.75;;;16.00;89.40;;;;;;4192113;28;20051;-62
2023/01/02 01:04:44;;;;;;;3.90;3.65;;;15.90;89.40;;;;;;4191660;28;20175;-62
2023/01/02 01:07:26;;;;;;;4.25;3.65;;;16.00;90.10;;;;;;4191324;28;20047;-62
2023/01/02 01:10:08;;;;;;;4.88;3.33;;;15.90;89.50;;;;;;4191309;28;20051;-62
2023/01/02 01:12:49;;;;;;;3.35;3.15;;;15.90;89.60;;;;;;4191467;28;20059;-62
2023/01/02 01:15:30;;;;;;;4.00;3.70;;;16.00;89.70;;;;;;4190286;28;20048;-62
2023/01/02 01:18:11;;;;;;;5.32;3.60;;;16.00;89.70;;;;;;4195455;28;20067;-62
2023/01/02 01:20:52;;;;;;;6.47;4.05;;;15.90;90.20;;;;;;4178151;28;20056;-62
2023/01/02 01:23:33;;;;;;;3.80;3.50;;;16.00;89.90;;;;;;4178402;28;20051;-62
2023/01/02 01:26:15;;;;;;;4.68;4.15;;;16.00;89.90;;;;;;4178709;28;20060;-62
2023/01/02 01:28:56;;;;;;;4.03;3.72;;;15.90;89.90;;;;;;4178326;28;20047;-62
2023/01/02 01:31:37;;;;;;;5.18;4.63;;;15.90;89.90;;;;;;4178043;28;20064;-63
2023/01/02 01:34:18;;;;;;;5.55;4.90;;;15.90;90.00;;;;;;4185810;28;20055;-62
2023/01/02 01:36:59;;;;;;;6.20;5.60;;;15.90;90.00;;;;;;4194390;28;20055;-62
2023/01/02 01:39:40;;;;;;;6.57;5.83;;;15.90;90.00;;;;;;4194782;28;20250;-62
2023/01/02 01:42:22;;;;;;;6.70;6.00;;;15.90;90.00;;;;;;4178074;28;20410;-64
2023/01/02 01:45:04;;;;;;;8.00;6.22;;;15.90;90.00;;;;;;4178146;28;20064;-63
2023/01/02 01:47:46;;;;;;;;;;;15.90;90.10;;;;;;4186375;28;20055;-62
2023/01/02 01:50:31;;;;;;;8.60;6.75;;;15.90;90.10;;;;;;4183526;28;19977;-62
2023/01/02 01:53:17;;;;;;;8.15;6.53;;;15.90;90.10;;;;;;4194220;28;20117;-64
2023/01/02 01:56:01;;;;;;;6.80;6.20;;;15.90;90.10;;;;;;4177658;28;20507;-63
2023/01/02 01:58:45;;;;;;;7.65;6.53;;;15.90;90.10;;;;;;4183206;28;20423;-62
2023/01/02 02:01:26;;;;;;;9.73;7.13;;;15.90;90.20;;;;;;4209872;28;20043;-62
2023/01/02 02:04:08;;;;;;;8.15;6.70;;;15.90;90.20;;;;;;4210983;28;20047;-62
2023/01/02 02:06:50;;;;;;;10.52;6.95;;;15.90;90.20;;;;;;4209413;28;20183;-61
2023/01/02 02:09:35;;;;;;;8.27;5.65;;;15.90;90.30;;;;;;4194440;28;20097;-62
2023/01/02 02:12:17;;;;;;;6.50;5.85;;;15.90;90.30;;;;;;4194540;28;20040;-62
2023/01/02 02:15:08;;;;;;;8.90;6.07;;;15.90;90.30;;;;;;4177061;28;20044;-62
2023/01/02 02:18:01;;;;;;;7.90;5.82;;;15.90;90.30;;;;;;4177785;28;20118;-65
2023/01/02 02:20:50;;;;;;;9.38;6.18;;;15.90;90.40;;;;;;4169659;28;20095;-63
2023/01/02 02:24:03;;;;;;;6.75;6.03;;;15.90;90.40;;;;;;4193470;28;20502;-62
2023/01/02 02:27:01;;;;;;;8.13;6.53;;;15.90;90.40;;;;;;4192872;28;20101;-62
2023/01/02 02:30:07;;;;;;;7.85;5.88;;;15.90;90.40;;;;;;4193971;28;20406;-62
2023/01/02 02:33:15;;;;;;;7.05;5.50;;;15.90;90.40;;;;;;4192799;28;20147;-62
2023/01/02 02:36:03;;;;;;;5.65;5.15;;;15.90;90.40;;;;;;4176176;28;20126;-62
2023/01/02 02:38:55;;;;;;;5.82;5.30;;;15.80;90.40;;;;;;4192546;28;20144;-62
2023/01/02 02:41:45;;;;;;;5.95;5.38;;;15.90;90.50;;;;;;4192619;28;20051;-63
2023/01/02 02:44:41;;;;;;;6.53;5.10;;;15.80;90.50;;;;;;4193890;28;20106;-62
2023/01/02 02:47:33;;;;;;;8.23;5.60;;;15.80;90.50;;;;;;4192081;28;20050;-63
2023/01/02 02:50:21;;;;;;;8.35;5.40;;;15.90;90.50;;;;;;4192806;28;20047;-62
2023/01/02 02:53:07;;;;;;;8.25;5.35;;;15.90;91.00;;;;;;4192644;28;20074;-62
2023/01/02 02:55:52;;;;;;;5.65;4.97;;;15.80;90.60;;;;;;4191979;28;20046;-63
2023/01/02 02:58:35;;;;;;;6.40;4.25;;;15.90;90.70;;;;;;4194437;28;20051;-62
2023/01/02 03:01:18;;;;;;;6.40;4.60;;;15.90;90.70;;;;;;4219991;28;20410;-62
2023/01/02 03:04:01;;;;;;;6.82;4.45;;;15.80;90.60;;;;;;4193538;28;20167;-62
2023/01/02 03:06:54;;;;;;;4.95;4.45;;;15.80;90.60;;;;;;4209036;28;20737;-62
2023/01/02 03:09:46;;;;;;;4.85;4.13;;;15.90;90.60;;;;;;4208645;28;20058;-62
2023/01/02 03:12:37;;;;;;;6.50;4.78;;;15.80;90.70;;;;;;4175156;28;20407;-65
2023/01/02 03:15:24;;;;;;;5.97;4.35;;;15.80;90.60;;;;;;4192134;28;20063;-62
2023/01/02 03:18:12;;;;;;;7.07;4.65;;;15.90;90.70;;;;;;4208620;28;20047;-62
2023/01/02 03:21:04;;;;;;;7.07;4.72;;;15.80;90.70;;;;;;4170108;28;1099609;-63
2023/01/02 03:23:47;;;;;;;7.43;5.22;;;15.80;90.70;;;;;;4208921;28;20571;-63
2023/01/02 03:26:32;;;;;;;5.97;4.57;;;15.80;90.70;;;;;;4192512;28;20162;-62
2023/01/02 03:29:20;;;;;;;6.03;4.28;;;15.80;90.70;;;;;;4186437;28;20117;-62
2023/01/02 03:32:04;;;;;;;5.93;5.03;;;15.80;90.70;;;;;;4193837;28;20052;-62
2023/01/02 03:34:48;;;;;;;7.35;5.13;;;15.80;90.70;;;;;;4192591;28;20056;-62
2023/01/02 03:37:34;;;;;;;7.80;4.95;;;15.80;90.80;;;;;;4176130;28;20127;-62
2023/01/02 03:40:20;;;;;;;6.95;4.68;;;15.80;90.80;;;;;;4175428;28;20508;-62
2023/01/02 03:43:08;;;;;;;6.60;4.75;;;15.80;90.80;;;;;;4185818;28;20684;-64
2023/01/02 03:45:53;;;;;;;10.20;6.50;;;15.80;90.80;;;;;;4192512;28;20047;-62
2023/01/02 03:48:40;;;;;;;7.75;5.07;;;15.80;90.80;;;;;;4201302;28;20051;-62
2023/01/02 03:51:21;;;;;;;9.38;5.72;;;15.80;90.80;;;;;;4209039;28;20070;-62
2023/01/02 03:54:05;;;;;;;10.65;5.88;;;15.80;90.80;;;;;;4209169;28;20120;-62
2023/01/02 03:56:57;;;;;;;10.43;5.82;;;15.80;90.80;;;;;;4208777;28;20058;-62
2023/01/02 03:59:46;;;;;;;7.75;5.25;;;15.80;90.80;;;;;;4191385;28;20066;-62
2023/01/02 04:02:35;;;;;;;7.78;5.57;;;15.80;90.80;;;;;;4192132;28;20066;-62
2023/01/02 04:05:22;;;;;;;11.32;5.10;;;15.80;90.90;;;;;;4203704;28;20097;-62
2023/01/02 04:08:08;;;;;;;8.25;5.55;;;15.80;90.90;;;;;;4209185;28;20047;-62
2023/01/02 04:10:53;;;;;;;8.68;5.95;;;15.80;90.90;;;;;;4209144;28;20497;-62
2023/01/02 04:13:41;;;;;;;7.85;6.05;;;15.80;90.90;;;;;;4203229;28;20051;-62
2023/01/02 04:16:27;;;;;;;9.27;5.82;;;15.80;90.90;;;;;;4192674;28;20562;-63
2023/01/02 04:19:14;;;;;;;7.63;5.65;;;15.80;90.90;;;;;;4195362;28;20051;-62
2023/01/02 04:21:59;;;;;;;7.32;5.15;;;15.80;90.90;;;;;;4208316;28;20406;-62
2023/01/02 04:24:46;;;;;;;8.77;5.35;;;15.80;90.90;;;;;;4195756;28;20513;-63
2023/01/02 04:27:33;;;;;;;9.10;5.57;;;15.80;90.90;;;;;;4199994;28;20052;-62
2023/01/02 04:30:15;;;;;;;9.18;4.90;;;15.80;90.90;;;;;;4192401;28;20052;-62
2023/01/02 04:32:57;;;;;;;;;;;15.80;90.90;;;;;;4192026;28;20132;-62
2023/01/02 04:35:38;;;;;;;7.47;4.47;;;15.80;91.00;;;;;;4175666;28;19931;-62
2023/01/02 04:38:20;;;;;;;6.70;4.55;;;15.80;91.00;;;;;;4175430;28;20067;-62
2023/01/02 04:41:00;;;;;;;6.32;4.40;;;15.80;91.00;;;;;;4175637;28;20068;-62
2023/01/02 04:43:43;;;;;;;5.63;4.85;;;15.80;91.00;;;;;;4191645;28;20055;-62
2023/01/02 04:46:25;;;;;;;6.20;4.78;;;15.80;91.00;;;;;;4191344;28;20079;-62
2023/01/02 04:49:06;;;;;;;4.97;4.53;;;15.80;91.10;;;;;;4195025;28;20050;-62
2023/01/02 04:51:46;;;;;;;7.40;4.45;;;15.70;91.10;;;;;;4208080;28;20070;-63
2023/01/02 04:54:27;;;;;;;7.88;4.13;;;15.70;91.10;;;;;;4191509;28;20411;-62
2023/01/02 04:57:08;;;;;;;4.32;3.83;;;15.70;91.10;;;;;;4174633;28;20518;-63
2023/01/02 04:59:51;;;;;;;4.22;3.85;;;15.70;91.10;;;;;;4174997;28;20068;-62
2023/01/02 05:02:35;;;;;;;5.13;3.70;;;15.70;91.10;;;;;;4174850;28;20118;-62
2023/01/02 05:05:16;;;;;;;4.03;3.72;;;15.70;91.10;;;;;;4181374;28;20050;-62
2023/01/02 05:07:58;;;;;;;5.40;4.15;;;15.80;91.10;;;;;;4191554;28;20109;-62
2023/01/02 05:10:39;;;;;;;4.28;3.88;;;15.70;91.10;;;;;;4191836;28;20062;-63
2023/01/02 05:13:20;;;;;;;6.22;4.10;;;15.70;91.10;;;;;;4191966;28;20144;-63
2023/01/02 05:16:03;;;;;;;5.25;3.30;;;15.70;91.10;;;;;;4192098;28;20561;-62
2023/01/02 05:18:44;;;;;;;4.15;3.55;;;15.70;91.10;;;;;;4191852;28;20056;-62
2023/01/02 05:24:25;;;;;;;4.28;3.83;;;15.70;91.10;;;;;;4174642;28;20130;-62
2023/01/02 05:27:05;;;;;;;7.30;4.28;;;15.70;91.10;;;;;;4175130;28;20052;-63
2023/01/02 05:29:46;;;;;;;4.53;4.13;;;15.70;91.10;;;;;;4174714;28;20071;-62
2023/01/02 05:32:29;;;;;;;5.03;4.18;;;15.70;91.20;;;;;;4175105;28;20368;-62
2023/01/02 05:35:10;;;;;;;6.30;3.83;;;15.70;91.20;;;;;;4200329;28;20051;-63
2023/01/02 05:37:51;;;;;;;4.97;4.00;;;15.70;91.20;;;;;;4194143;28;20058;-62
2023/01/02 05:40:31;;;;;;;7.93;3.55;;;15.70;91.20;;;;;;4175249;28;20044;-62
2023/01/02 05:43:13;;;;;;;6.72;4.53;;;15.70;91.20;;;;;;4174843;28;20052;-63
2023/01/02 05:45:53;;;;;;;7.38;4.10;;;15.70;91.20;;;;;;4175108;28;20195;-62
2023/01/02 05:48:36;;;;;;;5.50;4.05;;;15.70;91.60;;;;;;4178209;28;20052;-62
2023/01/02 05:51:18;;;;;;;6.20;3.63;;;15.70;91.20;;;;;;4208239;28;20076;-62
2023/01/02 05:53:58;;;;;;;;;;;15.70;91.20;;;;;;4208489;28;20077;-62
2023/01/02 05:56:40;;;;;;;4.97;4.43;;;15.70;91.20;;;;;;4174717;28;20042;-62
2023/01/02 05:59:21;;;;;;;7.70;4.85;;;15.70;91.20;;;;;;4174936;28;20517;-62
2023/01/02 06:02:02;;;;;;;5.70;4.07;;;15.70;91.30;;;;;;4176165;28;20119;-62
2023/01/02 06:04:45;;;;;;;5.95;4.22;;;15.70;91.30;;;;;;4177997;28;20582;-63
2023/01/02 06:07:25;;;;;;;5.60;4.20;;;15.70;91.30;;;;;;4177776;28;20172;-62
2023/01/02 06:10:07;;;;;;;6.93;4.50;;;15.70;91.30;;;;;;4180807;28;20056;-64
2023/01/02 06:12:48;;;;;;;7.65;4.22;;;15.70;91.30;;;;;;4194500;28;20394;-63
2023/01/02 06:15:29;;;;;;;5.60;4.35;;;15.70;91.30;;;;;;4193895;28;20110;-62
2023/01/02 06:18:10;;;;;;;6.22;4.40;;;15.70;91.30;;;;;;4193611;28;20102;-63
2023/01/02 06:20:57;;;;;;;4.88;3.90;;;15.70;91.30;;;;;;4194055;28;20051;-63
2023/01/02 06:23:38;;;;;;;6.57;4.35;;;15.70;91.40;;;;;;4194243;28;20098;-63
2023/01/02 06:26:20;;;;;;;7.03;4.53;;;15.70;91.40;;;;;;4194101;28;20186;-63
2023/01/02 06:29:01;;;;;;;5.38;4.57;;;15.70;91.40;;;;;;4194454;28;20141;-63
2023/01/02 06:31:42;;;;;;;5.10;4.45;;;15.70;91.40;;;;;;4194537;28;20396;-63
2023/01/02 06:34:28;;;;;;;4.93;4.40;;;15.70;91.40;;;;;;4194049;28;20054;-63
2023/01/02 06:37:11;;;;;;;6.32;4.03;;;15.70;91.40;;;;;;4194756;28;20048;-63
2023/01/02 06:39:51;;;;;;;5.78;3.75;;;15.70;91.40;;;;;;4177548;28;20051;-63
2023/01/02 06:42:33;;;;;;;7.68;3.90;;;15.70;91.40;;;;;;4183379;28;20060;-63
2023/01/02 06:45:14;;;;;;;6.10;4.03;;;15.70;91.40;;;;;;4193253;28;20054;-62
2023/01/02 06:47:59;;;;;;;9.68;4.32;;;15.70;91.40;;;;;;4193262;28;20133;-63
2023/01/02 06:50:39;;;;;;;6.30;4.93;;;15.70;91.40;;;;;;4193556;28;20055;-62
2023/01/02 06:53:21;;;;;;;5.50;5.00;;;15.70;91.40;;;;;;4194454;28;20073;-63
2023/01/02 06:56:05;;;;;;;3.22;3.00;;;15.70;91.40;;;;;;4180998;28;20205;-62
2023/01/02 06:58:46;;;;;;;1.83;1.73;;;15.70;91.40;;;;;;4192883;28;20059;-63
2023/01/02 07:01:28;;;;;;;1.65;1.30;;;15.70;91.50;;;;;;4181016;28;20055;-62
2023/01/02 07:04:15;;;;;;;1.17;1.08;;;15.70;91.70;;;;;;4193227;28;20407;-62
2023/01/02 07:06:56;;;;;;;1.20;1.10;;;15.80;91.60;;;;;;4193251;28;20506;-63
2023/01/02 07:09:38;;;;;;;0.70;0.70;;;15.80;91.60;;;;;;4177151;28;20056;-63
2023/01/02 07:12:19;;;;;;;0.85;0.85;;;15.80;91.50;;;;;;4176974;28;20060;-62
2023/01/02 07:15:00;;;;;;;0.70;0.70;;;15.80;91.50;;;;;;4187788;28;20063;-63
2023/01/02 07:17:41;;;;;;;0.95;0.95;;;15.70;91.40;;;;;;4185600;28;20074;-63
2023/01/02 07:20:22;;;;;;;1.08;0.90;;;15.70;91.40;;;;;;4194502;28;20214;-63
2023/01/02 07:23:02;;;;;;;1.33;1.30;;;15.70;91.40;;;;;;4176508;28;20052;-62
2023/01/02 07:25:45;;;;;;;1.20;1.10;;;15.70;91.40;;;;;;4192990;28;20190;-62
2023/01/02 07:28:27;;;;;;;1.50;1.40;;;15.70;91.80;;;;;;4192878;28;20055;-62
2023/01/02 07:31:11;;;;;;;1.60;1.50;;;15.70;91.40;;;;;;4192152;28;20059;-63
2023/01/02 07:33:54;;;;;;;1.85;1.75;;;15.70;91.40;;;;;;4176420;28;20186;-62
2023/01/02 07:36:34;;;;;;;2.00;1.90;;;15.70;91.40;;;;;;4189541;28;20059;-62
2023/01/02 07:39:15;;;;;;;1.70;1.60;;;15.70;91.40;;;;;;4192493;28;20163;-63
2023/01/02 07:41:58;;;;;;;2.92;1.75;;;15.70;91.10;;;;;;4187080;28;20404;-63
2023/01/02 07:44:39;;;;;;;2.03;1.92;;;15.70;91.20;;;;;;4192749;28;20098;-63
2023/01/02 07:47:20;;;;;;;2.33;2.13;;;15.70;91.60;;;;;;4192420;28;20056;-63
2023/01/02 07:50:01;;;;;;;2.00;1.77;;;15.60;91.20;;;;;;4192700;28;20406;-62
2023/01/02 07:52:43;;;;;;;1.85;1.73;;;15.60;91.30;;;;;;4192722;28;20051;-62
2023/01/02 07:55:24;;;;;;;1.17;1.17;;;15.60;91.30;;;;;;4192580;28;20047;-63
2023/01/02 07:58:06;;;;;;;0.95;0.90;;;15.60;91.20;;;;;;4183433;28;20059;-62
2023/01/02 08:00:47;;;;;;;3.22;0.80;;;15.60;91.00;;;;;;4192455;28;20503;-62
2023/01/02 08:03:28;;;;;;;0.77;0.77;;;15.60;91.40;;;;;;4193267;28;20059;-62
2023/01/02 08:06:11;;;;;;;0.50;0.50;;;15.60;91.00;;;;;;4192884;28;20051;-62
2023/01/02 08:08:52;;;;;;;1.10;0.52;;;15.60;90.70;;;;;;4187910;28;20047;-62
2023/01/02 08:11:33;;;;;;;1.15;0.55;;;15.60;90.80;;;;;;4173600;28;20068;-62
2023/01/02 08:14:16;;;;;;;0.50;0.50;;;15.60;90.70;;;;;;4173729;28;20538;-62
2023/01/02 08:17:02;;;;;;;0.80;0.60;;;15.60;90.70;;;;;;4175486;28;20060;-61
2023/01/02 08:19:44;;;;;;;1.00;0.85;;;15.60;90.70;;;;;;4186149;28;20191;-62
2023/01/02 08:22:24;;;;;;;0.50;0.50;;;15.50;90.50;;;;;;4175850;28;20142;-62
2023/01/02 08:25:07;;;;;;;0.47;0.47;;;15.60;90.50;;;;;;4177109;28;20060;-61
2023/01/02 08:27:48;;;;;;;2.80;0.60;;;15.50;90.50;;;;;;4181141;28;20056;-62
2023/01/02 08:30:30;;;;;;;2.38;0.85;;;15.50;90.50;;;;;;4178634;28;20118;-61
2023/01/02 08:33:12;;;;;;;0.80;0.80;;;15.50;90.60;;;;;;4180803;28;20059;-63
2023/01/02 08:35:54;;;;;;;1.42;0.73;;;15.50;90.60;;;;;;4182379;28;20501;-62
2023/01/02 08:38:35;;;;;;;1.80;0.90;;;15.50;90.60;;;;;;4179779;28;20354;-62
2023/01/02 08:41:30;;;;;;;2.08;1.48;;;15.50;90.50;;;;;;4175596;28;20191;-62
2023/01/02 08:44:11;;;;;;;0.90;0.55;;;15.50;90.50;;;;;;4173519;28;20063;-63
2023/01/02 08:46:53;;;;;;;2.03;0.73;;;15.50;90.70;;;;;;4175094;28;20121;-63
2023/01/02 08:49:35;;;;;;;1.73;0.40;;;15.50;90.70;;;;;;4186238;28;20060;-61
2023/01/02 08:52:16;;;;;;;0.90;0.63;;;15.50;90.70;;;;;;4172521;28;20083;-61
2023/01/02 08:54:56;;;;;;;1.05;0.95;;;15.50;91.10;;;;;;4172961;28;20133;-62
2023/01/02 08:57:37;;;;;;;1.85;1.00;;;15.50;90.80;;;;;;4183697;28;20134;-62
2023/01/02 09:00:19;;;;;;;1.23;0.60;;;15.50;90.80;;;;;;4174694;28;20072;-61
2023/01/02 09:03:01;;;;;;;2.47;0.70;;;15.50;90.80;;;;;;4188881;28;20398;-61
2023/01/02 09:05:42;;;;;;;1.58;0.90;;;15.50;90.70;;;;;;4183036;28;20406;-63
2023/01/02 09:08:23;;;;;;;2.20;0.82;;;15.50;90.70;;;;;;4181097;28;20098;-61
2023/01/02 09:11:11;;;;;;;0.70;0.70;;;15.40;90.70;;;;;;4176091;28;20507;-61
2023/01/02 09:13:52;;;;;;;0.75;0.73;;;15.50;90.60;;;;;;4174264;28;20190;-60
2023/01/02 09:16:33;;;;;;;1.85;0.80;;;15.50;90.80;;;;;;4188777;28;20490;-60
2023/01/02 09:19:16;;;;;;;1.25;0.82;;;15.50;90.80;;;;;;4177916;28;20052;-60
2023/01/02 09:21:56;;;;;;;2.17;0.80;;;15.50;90.70;;;;;;4184214;28;20059;-61
2023/01/02 09:24:37;;;;;;;1.67;0.73;;;15.50;90.70;;;;;;4179512;28;20063;-62
2023/01/02 09:27:19;;;;;;;0.77;0.73;;;15.50;90.50;;;;;;4180062;28;20060;-61
2023/01/02 09:30:00;;;;;;;0.88;0.88;;;15.50;90.50;;;;;;4193481;28;20467;-60
2023/01/02 09:32:40;;;;;;;1.93;0.97;;;15.50;90.50;;;;;;4181152;28;20059;-60
2023/01/02 09:35:23;;;;;;;0.95;0.80;;;15.50;90.50;;;;;;4179392;28;20051;-60
2023/01/02 09:38:04;;;;;;;4.03;0.82;;;15.50;90.50;;;;;;4186062;28;20060;-60
2023/01/02 09:40:48;;;;;;;2.72;0.80;;;15.40;90.80;;;;;;4191464;28;20063;-60
2023/01/02 09:43:36;;;;;;;0.55;0.55;;;15.50;90.40;;;;;;4185380;28;20510;-61
2023/01/02 09:46:27;;;;;;;2.17;0.93;;;15.40;90.50;;;;;;4189207;28;20059;-61
2023/01/02 09:49:12;;;;;;;2.35;0.85;;;15.50;90.50;;;;;;4175749;28;20115;-61
2023/01/02 09:51:54;;;;;;;1.60;0.80;;;15.50;90.60;;;;;;4175843;28;20196;-60
2023/01/02 09:54:35;;;;;;;2.30;0.80;;;15.40;90.50;;;;;;4182613;28;20043;-59
2023/01/02 09:57:28;;;;;;;1.23;1.10;;;15.40;90.50;;;;;;4187055;28;20462;-61
2023/01/02 10:00:17;;;;;;;0.68;0.55;;;15.40;90.40;;;;;;4188566;28;20158;-62
2023/01/02 10:03:10;;;;;;;3.15;0.90;;;15.40;90.60;;;;;;4175789;28;20094;-62
2023/01/02 10:06:08;;;;;;;1.48;1.02;;;15.40;91.20;;;;;;4175531;28;20106;-62
2023/01/02 10:09:01;;;;;;;2.22;0.85;;;15.40;90.90;;;;;;4186666;28;20577;-61
2023/01/02 10:11:53;;;;;;;1.42;0.82;;;15.40;90.90;;;;;;4183617;28;20145;-61
2023/01/02 10:14:48;;;;;;;1.40;1.30;;;15.40;90.90;;;;;;4175494;28;20056;-62
2023/01/02 10:17:33;;;;;;;2.60;1.90;;;15.40;90.90;;;;;;4179708;28;20457;-61
2023/01/02 10:20:21;;;;;;;6.57;2.28;;;15.40;91.00;;;;;;4184253;28;20131;-61
2023/01/02 10:23:07;;;;;;;1.98;1.00;;;15.40;91.20;;;;;;4158308;28;20056;-61
2023/01/02 10:25:54;;;;;;;2.30;1.85;;;15.40;91.40;;;;;;4158540;28;20060;-61
2023/01/02 10:28:44;;;;;;;2.45;1.40;;;15.40;91.40;;;;;;4143477;28;20151;-61
2023/01/02 10:31:30;;;;;;;1.20;1.10;;;15.40;91.30;;;;;;4152103;28;20084;-62
2023/01/02 10:34:16;;;;;;;6.68;2.90;;;15.40;91.50;;;;;;4149832;28;20064;-61
2023/01/02 10:36:57;;;;;;;3.25;1.75;;;15.40;91.40;;;;;;4142601;28;20053;-61
2023/01/02 10:39:46;;;;;;;3.63;1.75;;;15.40;91.40;;;;;;4152556;28;20067;-62
2023/01/02 10:42:32;;;;;;;3.40;1.77;;;15.40;91.30;;;;;;4149312;28;20052;-60
2023/01/02 10:45:16;;;;;;;3.30;1.10;;;15.40;91.10;;;;;;4146505;28;20507;-60
2023/01/02 10:47:56;;;;;;;6.93;2.85;;;15.40;91.00;;;;;;4156145;28;20055;-60
2023/01/02 10:50:41;;;;;;;0.90;0.90;;;15.40;91.00;;;;;;4148217;28;20064;-61
2023/01/02 10:53:28;;;;;;;3.17;1.33;;;15.40;91.00;;;;;;4154165;28;20167;-60
2023/01/02 10:56:17;;;;;;;5.63;2.45;;;15.40;90.90;;;;;;4150965;28;20072;-60
2023/01/02 10:59:00;;;;;;;2.47;2.13;;;15.40;90.90;;;;;;4150967;28;20076;-61
2023/01/02 11:01:53;;;;;;;1.77;1.63;;;15.40;90.80;;;;;;4141354;28;20187;-62
2023/01/02 11:04:42;;;;;;;2.20;1.75;;;15.40;90.70;;;;;;4145989;28;20056;-60
2023/01/02 11:07:25;;;;;;;3.03;1.25;;;15.40;90.70;;;;;;4144828;28;20080;-61
2023/01/02 11:10:23;;;;;;;2.92;1.70;;;15.30;90.70;;;;;;4144814;28;20061;-61
2023/01/02 11:13:08;;;;;;;1.85;1.60;;;15.30;90.60;;;;;;4152950;28;20053;-61
2023/01/02 11:15:55;;;;;;;1.80;1.30;;;15.30;90.50;;;;;;4142668;28;20065;-63
2023/01/02 11:18:37;;;;;;;1.70;1.45;;;15.30;90.40;;;;;;4152018;28;20103;-62
2023/01/02 11:21:25;;;;;;;3.15;1.35;;;15.30;90.30;;;;;;4157603;28;20186;-62
2023/01/02 11:24:14;;;;;;;1.85;1.33;;;15.30;90.30;;;;;;4178605;28;20059;-62
2023/01/02 11:26:57;;;;;;;1.88;1.55;;;15.30;90.20;;;;;;4180275;28;20152;-63
2023/01/02 11:29:38;;;;;;;2.90;1.33;;;15.30;90.60;;;;;;4181500;28;20133;-62
2023/01/02 11:32:26;;;;;;;;;;;15.30;90.20;;;;;;4176763;28;20055;-62
2023/01/02 11:35:34;;;;;;;2.72;1.65;;;15.30;90.10;;;;;;4190339;28;20444;-62
2023/01/02 11:38:17;;;;;;;3.85;1.02;;;15.30;90.10;;;;;;4181080;28;20064;-63
2023/01/02 11:41:04;;;;;;;2.17;1.40;;;15.30;90.10;;;;;;4179396;28;20067;-63
2023/01/02 11:43:49;;;;;;;2.10;0.98;;;15.30;90.10;;;;;;4177904;28;20044;-63
2023/01/02 11:46:34;;;;;;;2.67;0.82;;;15.30;90.00;;;;;;4179389;28;20479;-63
2023/01/02 11:49:20;;;;;;;2.40;0.90;;;15.30;90.00;;;;;;4181851;28;20056;-62
2023/01/02 11:52:03;;;;;;;2.20;0.80;;;15.20;89.90;;;;;;4185489;28;20044;-63
2023/01/02 11:54:52;;;;;;;3.60;1.17;;;15.20;89.60;;;;;;4181257;28;20063;-61
2023/01/02 11:57:43;;;;;;;1.27;0.88;;;15.30;89.50;;;;;;4178098;28;20511;-63
2023/01/02 12:00:29;;;;;;;1.35;1.05;;;15.20;89.30;;;;;;4175105;28;20063;-62
2023/01/02 12:03:16;;;;;;;3.45;0.73;;;15.20;89.20;;;;;;4185965;28;20065;-62
2023/01/02 12:06:16;;;;;;;3.03;0.93;;;15.20;89.10;;;;;;4178114;28;20568;-62
2023/01/02 12:09:06;;;;;;;2.40;0.60;;;15.20;88.80;;;;;;4176991;28;20242;-63
2023/01/02 12:12:01;;;;;;;2.72;1.20;;;15.20;88.80;;;;;;4173463;28;20269;-62
2023/01/02 12:14:58;;;;;;;1.40;0.85;;;15.20;88.70;;;;;;4163972;28;20063;-62
2023/01/02 12:17:47;;;;;;;1.52;1.02;;;15.20;89.40;;;;;;4179038;28;20065;-63
2023/01/02 12:20:39;;;;;;;3.60;1.38;;;15.20;88.40;;;;;;4178163;28;20171;-62
2023/01/02 12:23:56;;;;;;;1.90;1.13;;;15.10;88.60;;;;;;4174361;28;20074;-62
2023/01/02 12:26:45;;;;;;;2.75;1.00;;;15.10;88.20;;;;;;4176081;28;20121;-62
2023/01/02 12:29:39;;;;;;;2.80;1.40;;;15.10;88.20;;;;;;4182498;28;20055;-61
2023/01/02 12:33:00;;;;;;;3.92;1.10;;;15.10;88.10;;;;;;4175406;28;20141;-63
2023/01/02 12:36:19;;;;;;;3.20;1.63;;;15.10;88.00;;;;;;4178578;28;20383;-63
2023/01/02 12:39:30;;;;;;;4.30;0.98;;;15.10;87.90;;;;;;4176288;28;20056;-63
2023/01/02 12:42:26;;;;;;;2.85;0.98;;;15.10;87.90;;;;;;4174329;28;20056;-63
2023/01/02 12:45:16;;;;;;;3.50;0.95;;;15.10;87.80;;;;;;4175186;28;20514;-63
2023/01/02 12:48:13;;;;;;;3.17;0.90;;;15.10;87.70;;;;;;4179444;28;20055;-63
2023/01/02 12:51:12;;;;;;;2.55;0.95;;;15.10;87.60;;;;;;4180546;28;20506;-61
2023/01/02 12:54:15;;;;;;;4.90;1.00;;;15.00;87.40;;;;;;4179539;28;20561;-62
2023/01/02 12:57:08;;;;;;;5.10;1.17;;;15.00;87.40;;;;;;4182610;28;20063;-62
2023/01/02 13:00:15;;;;;;;4.95;1.10;;;15.10;87.40;;;;;;4166278;28;20051;-63
2023/01/02 13:03:20;;;;;;;6.32;1.20;;;15.00;87.10;;;;;;4151311;28;20044;-63
2023/01/02 13:06:07;;;;;;;3.35;1.55;;;15.00;87.10;;;;;;4178874;28;20051;-63
2023/01/02 13:09:14;;;;;;;2.63;1.10;;;15.00;87.00;;;;;;4178767;28;20103;-62
2023/01/02 13:12:09;;;;;;;7.78;1.08;;;15.00;87.00;;;;;;4185281;28;20051;-62
2023/01/02 13:14:54;;;;;;;7.03;1.20;;;15.00;87.00;;;;;;4182094;28;20133;-62
2023/01/02 13:17:47;;;;;;;3.05;1.00;;;15.00;87.00;;;;;;4172795;28;20431;-62
2023/01/02 13:20:44;;;;;;;4.45;1.10;;;15.00;86.90;;;;;;4191627;28;21047;-62
2023/01/02 13:23:32;;;;;;;7.90;1.48;;;15.00;86.80;;;;;;4180627;28;20127;-63
2023/01/02 13:26:17;;;;;;;6.90;2.15;;;15.00;86.70;;;;;;4179917;28;20613;-63
2023/01/02 13:29:05;;;;;;;4.65;1.50;;;15.00;86.60;;;;;;4184506;28;20238;-63
2023/01/02 13:31:49;;;;;;;3.45;0.98;;;14.90;86.60;;;;;;4185112;28;20509;-63
2023/01/02 13:34:32;;;;;;;4.38;1.65;;;14.90;86.50;;;;;;4176346;28;20052;-63
2023/01/02 13:37:18;;;;;;;4.80;1.17;;;14.90;86.50;;;;;;4189285;28;20140;-62
2023/01/02 13:40:02;;;;;;;7.03;1.67;;;14.90;86.40;;;;;;4176439;28;20056;-63
2023/01/02 13:43:00;;;;;;;6.47;1.33;;;14.90;86.30;;;;;;4176591;28;20055;-62
2023/01/02 13:45:44;;;;;;;6.95;1.50;;;14.90;86.20;;;;;;4182646;28;20072;-63
2023/01/02 13:48:31;;;;;;;6.78;1.33;;;14.90;86.40;;;;;;4176109;28;20115;-61
2023/01/02 13:51:16;;;;;;;6.97;1.27;;;14.90;86.30;;;;;;4175243;28;20449;-63
2023/01/02 13:53:57;;;;;;;5.93;2.75;;;14.90;86.40;;;;;;4164513;28;20052;-63
2023/01/02 13:57:16;;;;;;;8.13;1.90;;;14.90;86.50;;;;;;4184364;28;20055;-63
2023/01/02 14:00:00;;;;;;;9.55;2.35;;;14.90;86.30;;;;;;4181736;28;20294;-62
2023/01/02 14:02:40;;;;;;;8.18;1.40;;;14.90;86.30;;;;;;4182790;28;20537;-63
2023/01/02 14:05:57;;;;;;;2.38;0.70;;;14.90;86.20;;;;;;4177386;28;20056;-63
2023/01/02 14:08:59;;;;;;;7.45;1.42;;;14.90;86.30;;;;;;4187230;28;20507;-62
2023/01/02 14:11:46;;;;;;;6.07;1.45;;;14.90;86.30;;;;;;4180922;28;20055;-62
2023/01/02 14:14:42;;;;;;;5.10;1.98;;;14.90;86.20;;;;;;4184651;28;20137;-62
2023/01/02 14:17:35;;;;;;;5.20;1.50;;;14.90;86.10;;;;;;4185614;28;20199;-63
2023/01/02 14:20:23;;;;;;;6.53;1.30;;;14.90;86.20;;;;;;4184461;28;20056;-62
2023/01/02 14:23:07;;;;;;;7.70;1.90;;;14.90;86.20;;;;;;4177113;28;20052;-62
2023/01/02 14:25:49;;;;;;;9.07;2.17;;;14.90;86.20;;;;;;4180098;28;20056;-61